Time;durP1;ratioP1;P1;durP2;ratioP2;P2;SDS_P1;SDS_P2;PMS_P1;PMS_P2;Temp;Humidity;BMP_temperature;BMP_pressure;BME280_temperature;BME280_humidity;BME280_pressure;Samples;Min_cycle;Max_cycle;Signal;HPM_P1;HPM_P2
2022/05/25 00:00:59;;;;;;;1.40;1.10;;;;;;;15.56;69.92;96373.91;6268449;23;20020;-82
2022/05/25 00:04:06;;;;;;;2.88;1.70;;;;;;;15.55;70.03;96377.56;6247889;23;20024;-82
2022/05/25 00:06:52;;;;;;;2.35;2.05;;;;;;;15.58;69.94;96376.34;6271006;23;20024;-82
2022/05/25 00:09:49;;;;;;;1.38;1.27;;;;;;;15.59;69.80;96376.13;6269920;23;20024;-82
2022/05/25 00:12:38;;;;;;;1.73;1.30;;;;;;;15.59;69.91;96373.50;6269655;22;20020;-82
2022/05/25 00:19:58;;;;;;;1.83;1.42;;;;;;;15.64;70.20;96371.00;6270314;23;20027;-82
2022/05/25 00:21:42;;;;;;;1.65;1.55;;;;;;;15.64;69.84;96365.75;6270652;22;20071;-82
2022/05/25 00:24:45;;;;;;;3.28;1.70;;;;;;;15.62;70.11;96369.63;6249565;23;20012;-82
2022/05/25 00:27:49;;;;;;;4.63;1.98;;;;;;;15.59;70.54;96370.88;6270254;23;20020;-82
2022/05/25 00:33:36;;;;;;;1.88;1.77;;;;;;;15.63;70.19;96364.16;6270705;23;20024;-82
2022/05/25 00:45:31;;;;;;;2.05;1.70;;;;;;;15.52;70.57;96374.56;6268126;23;20046;-83
2022/05/25 00:51:33;;;;;;;;;;;;;;;15.54;70.44;96378.59;6271043;22;20020;-82
2022/05/25 00:57:42;;;;;;;4.05;2.10;;;;;;;15.60;70.88;96396.13;6269439;22;20024;-82
2022/05/25 01:24:33;;;;;;;2.17;1.25;;;;;;;15.80;71.48;96416.19;5132523;28;20048;-82
2022/05/25 01:27:43;;;;;;;1.20;1.00;;;;;;;15.91;73.34;96404.91;5132347;28;20043;-82
2022/05/25 02:15:23;;;;;;;0.82;0.80;;;;;;;16.08;71.67;96433.28;5468906;22;20058;-80
2022/05/25 02:18:05;;;;;;;0.80;0.70;;;;;;;16.10;67.53;96441.75;5015661;28;20054;-78
2022/05/25 02:20:50;;;;;;;0.70;0.68;;;;;;;16.06;69.74;96439.53;5015033;28;20058;-78
2022/05/25 02:23:31;;;;;;;0.60;0.50;;;;;;;16.14;71.35;96437.66;5015237;28;20057;-80
2022/05/25 02:26:09;;;;;;;1.10;0.60;;;;;;;16.12;64.39;96434.44;5014887;28;20102;-80
2022/05/25 02:28:45;;;;;;;1.65;0.80;;;;;;;16.08;68.61;96436.72;5014999;28;20109;-80
2022/05/25 02:31:32;;;;;;;1.20;0.65;;;;;;;16.16;71.47;96435.59;5015130;28;20050;-80
2022/05/25 02:34:04;;;;;;;1.10;0.77;;;;;;;16.20;67.87;96431.50;5014962;28;20050;-80
2022/05/25 02:36:43;;;;;;;0.60;0.60;;;;;;;16.18;68.54;96429.09;5015198;28;20039;-80
2022/05/25 02:39:16;;;;;;;1.83;1.65;;;;;;;16.15;66.30;96423.47;5015086;28;20049;-79
2022/05/25 02:41:53;;;;;;;0.77;0.73;;;;;;;16.04;64.83;96423.19;5014250;28;20054;-80
2022/05/25 02:45:08;;;;;;;1.13;0.88;;;;;;;15.95;64.90;96416.63;5014182;28;20057;-80
2022/05/25 03:06:26;;;;;;;4.38;0.85;;;;;;;15.95;65.18;96447.38;5060432;22;20054;-81
2022/05/25 03:09:37;;;;;;;0.80;0.60;;;;;;;15.94;65.44;96448.38;5020295;28;20054;-82
2022/05/25 03:12:29;;;;;;;2.97;0.80;;;;;;;15.96;65.16;96447.16;5075746;22;20061;-82
2022/05/25 03:15:13;;;;;;;0.80;0.80;;;;;;;15.92;64.04;96440.75;5016548;28;20097;-81
2022/05/25 03:18:05;;;;;;;;;;;;;;;15.90;64.47;96448.03;5016485;28;20125;-81
2022/05/25 03:20:58;;;;;;;2.90;1.13;;;;;;;15.79;64.74;96446.13;5015243;28;19928;-81
2022/05/25 03:23:48;;;;;;;1.58;1.02;;;;;;;15.64;64.78;96447.25;5014129;28;20030;-81
2022/05/25 03:26:56;;;;;;;1.88;1.40;;;;;;;15.54;65.08;96454.81;5015412;28;20053;-80
2022/05/25 03:32:38;;;;;;;3.83;1.30;;;;;;;15.44;65.60;96475.56;5015695;28;20061;-81
2022/05/25 03:35:42;;;;;;;2.63;1.58;;;;;;;15.51;67.93;96481.56;5015580;28;20054;-81
2022/05/25 03:41:18;;;;;;;2.13;0.90;;;;;;;15.70;70.47;96484.22;5015932;28;20073;-81
2022/05/25 03:44:06;;;;;;;1.10;0.75;;;;;;;15.75;69.21;96489.66;5014653;28;20054;-81
2022/05/25 03:46:44;;;;;;;2.03;0.93;;;;;;;15.80;69.01;96489.81;5013808;28;20054;-81
2022/05/25 03:52:13;;;;;;;0.90;0.70;;;;;;;15.90;69.56;96500.66;5014020;28;20113;-81
2022/05/25 03:57:41;;;;;;;2.92;0.60;;;;;;;15.74;63.18;96495.94;5013263;28;20046;-80
2022/05/25 04:20:10;;;;;;;2.05;0.60;;;;;;;15.84;62.03;96517.28;5018275;28;20061;-80
2022/05/25 04:22:47;;;;;;;2.50;0.73;;;;;;;15.84;65.60;96519.94;5017940;28;20080;-80
2022/05/25 04:25:33;;;;;;;4.70;0.85;;;;;;;15.85;63.34;96524.97;5018515;28;20058;-78
2022/05/25 04:28:25;;;;;;;2.67;0.73;;;;;;;15.88;65.18;96528.19;5018000;28;20037;-79
2022/05/25 04:33:52;;;;;;;2.65;1.02;;;;;;;15.92;67.78;96539.88;5018466;28;20026;-79
2022/05/25 04:36:49;;;;;;;;;;;;;;;15.92;66.38;96535.44;5018417;28;20061;-79
2022/05/25 04:39:23;;;;;;;0.98;0.77;;;;;;;15.91;66.03;96544.34;5018346;28;20004;-80
2022/05/25 04:42:02;;;;;;;0.77;0.70;;;;;;;15.87;64.98;96543.16;5017831;28;20046;-78
2022/05/25 04:44:49;;;;;;;0.55;0.55;;;;;;;15.88;66.96;96542.16;5018277;28;20046;-82
2022/05/25 04:47:27;;;;;;;0.90;0.90;;;;;;;15.88;67.91;96549.25;5016477;28;20571;-78
2022/05/25 04:49:56;;;;;;;1.38;1.27;;;;;;;15.89;66.92;96556.91;4996801;28;20030;-78
2022/05/25 04:52:25;;;;;;;1.67;1.33;;;;;;;15.88;65.23;96559.75;4993138;28;20050;-79
2022/05/25 04:54:56;;;;;;;3.22;1.20;;;;;;;15.85;66.18;96559.16;4997698;28;20037;-83
2022/05/25 04:57:29;;;;;;;1.42;0.98;;;;;;;15.83;65.53;96566.47;5015005;28;20053;-78
2022/05/25 05:00:03;;;;;;;2.45;1.27;;;;;;;15.81;64.23;96568.50;5017825;28;20093;-79
2022/05/25 05:02:44;;;;;;;2.10;0.90;;;;;;;15.83;66.94;96570.91;5017335;28;20045;-80
2022/05/25 05:05:29;;;;;;;0.98;0.73;;;;;;;15.83;65.09;96582.25;5018147;28;20039;-80
2022/05/25 05:11:25;;;;;;;3.03;1.08;;;;;;;15.83;64.04;96591.94;4363390;22;20070;-80
2022/05/25 05:14:06;;;;;;;25.83;16.80;;;;;;;15.84;66.68;96594.38;4984541;28;20042;-81
2022/05/25 05:16:44;;;;;;;2.78;1.80;;;;;;;15.84;65.44;96594.38;5354377;23;20042;-78
2022/05/25 05:19:30;;;;;;;2.67;1.10;;;;;;;15.89;67.35;96593.72;5016567;28;20050;-79
2022/05/25 05:22:08;;;;;;;1.85;1.10;;;;;;;15.89;67.27;96596.34;4997120;28;20644;-78
2022/05/25 05:24:40;;;;;;;1.13;1.02;;;;;;;15.87;64.98;96606.28;4997129;28;20062;-79
2022/05/25 05:27:13;;;;;;;1.67;1.55;;;;;;;15.86;67.29;96599.44;4986840;28;20055;-79
2022/05/25 05:29:42;;;;;;;2.05;0.93;;;;;;;15.88;66.46;96607.91;4994768;28;20153;-80
2022/05/25 05:32:10;;;;;;;1.50;1.00;;;;;;;15.88;65.87;96605.28;4987693;28;20034;-82
2022/05/25 05:35:04;;;;;;;2.03;1.20;;;;;;;15.88;65.55;96615.81;5173781;23;20042;-80
2022/05/25 05:37:55;;;;;;;1.75;0.98;;;;;;;15.88;65.18;96612.38;5018115;28;20033;-79
2022/05/25 05:40:28;;;;;;;3.20;1.10;;;;;;;15.88;65.50;96618.44;5098427;23;20041;-78
2022/05/25 05:43:05;;;;;;;0.90;0.75;;;;;;;15.89;65.97;96614.75;5078229;23;20047;-80
2022/05/25 05:45:42;;;;;;;1.27;1.17;;;;;;;15.90;65.56;96626.13;5016749;28;20040;-79
2022/05/25 05:48:19;;;;;;;3.95;1.40;;;;;;;15.87;64.91;96629.97;5018056;28;20102;-78
2022/05/25 05:51:04;;;;;;;1.20;0.90;;;;;;;15.87;65.92;96632.59;5020696;28;20034;-80
2022/05/25 05:53:36;;;;;;;4.47;1.02;;;;;;;15.90;66.92;96628.75;4987917;28;20098;-80
2022/05/25 05:56:05;;;;;;;3.92;1.13;;;;;;;15.90;65.71;96636.63;4992615;28;20046;-80
2022/05/25 05:58:34;;;;;;;3.20;0.75;;;;;;;15.84;62.78;96644.34;4996493;28;20053;-78
2022/05/25 06:01:05;;;;;;;0.82;0.77;;;;;;;15.86;65.73;96646.78;4998263;28;20080;-80
2022/05/25 06:03:34;;;;;;;2.47;0.80;;;;;;;15.85;64.39;96648.59;5000000;28;20111;-79
2022/05/25 06:06:03;;;;;;;1.63;0.70;;;;;;;15.88;66.22;96652.63;5001085;28;20038;-82
2022/05/25 06:08:32;;;;;;;1.83;0.88;;;;;;;15.90;65.15;96652.41;5002061;28;20039;-82
2022/05/25 06:11:01;;;;;;;1.48;1.00;;;;;;;15.91;65.30;96654.03;5001932;28;20063;-82
2022/05/25 06:13:33;;;;;;;0.80;0.80;;;;;;;15.92;66.11;96659.06;5001631;28;20030;-83
2022/05/25 06:21:40;;;;;;;1.08;0.90;;;;;;;15.97;64.89;96658.44;5001685;28;20041;-82
2022/05/25 06:24:09;;;;;;;2.13;1.00;;;;;;;15.96;64.26;96655.00;5001517;28;20058;-81
2022/05/25 06:26:38;;;;;;;1.52;1.20;;;;;;;15.98;66.04;96665.28;5001537;28;20081;-83
2022/05/25 06:29:07;;;;;;;3.72;1.25;;;;;;;15.97;62.41;96667.13;5001853;28;20026;-82
2022/05/25 06:31:38;;;;;;;36.05;5.97;;;;;;;16.00;64.31;96679.84;5001556;28;20065;-82
2022/05/25 06:34:07;;;;;;;48.95;8.57;;;;;;;16.02;63.83;96692.78;5001319;28;20042;-82
2022/05/25 06:36:36;;;;;;;31.25;4.85;;;;;;;16.01;62.40;96692.00;5001297;28;20037;-82
2022/05/25 06:39:06;;;;;;;43.38;6.55;;;;;;;16.01;61.78;96692.00;5001627;28;20034;-82
2022/05/25 06:41:36;;;;;;;51.63;9.82;;;;;;;16.01;62.91;96701.72;5001509;28;20027;-82
2022/05/25 06:44:05;;;;;;;49.90;6.72;;;;;;;16.04;62.78;96694.19;5001228;28;20059;-82
2022/05/25 06:46:35;;;;;;;42.33;6.55;;;;;;;16.02;60.77;96704.09;5000826;28;20042;-81
2022/05/25 06:49:06;;;;;;;51.95;6.90;;;;;;;16.03;61.85;96711.00;5001550;28;20121;-82
2022/05/25 06:51:38;;;;;;;67.32;9.50;;;;;;;16.09;62.60;96713.78;5001291;28;20038;-82
2022/05/25 06:54:07;;;;;;;;;;;;;;;16.17;63.24;96716.97;5001606;28;20035;-82
2022/05/25 06:56:38;;;;;;;21.75;3.38;;;;;;;16.20;61.08;96710.47;5001188;28;19937;-82
2022/05/25 06:59:08;;;;;;;9.27;1.92;;;;;;;16.21;60.81;96709.47;5001096;28;20054;-82
2022/05/25 07:01:38;;;;;;;3.17;1.42;;;;;;;16.23;60.10;96716.13;5001038;28;20094;-82
2022/05/25 07:04:10;;;;;;;4.47;1.27;;;;;;;16.25;58.66;96713.28;5001088;28;20103;-82
2022/05/25 07:06:42;;;;;;;25.15;4.75;;;;;;;16.27;57.77;96716.50;5000518;28;20075;-82
2022/05/25 07:09:12;;;;;;;7.97;2.00;;;;;;;16.33;60.33;96720.09;5001019;28;20045;-82
2022/05/25 07:11:42;;;;;;;1.42;0.77;;;;;;;16.40;59.53;96716.38;5000768;28;20034;-81
2022/05/25 07:14:10;;;;;;;3.58;0.77;;;;;;;16.47;60.25;96716.31;5000830;28;20069;-81
2022/05/25 07:16:40;;;;;;;1.23;0.77;;;;;;;16.53;58.76;96733.06;5000221;28;20039;-81
2022/05/25 07:19:10;;;;;;;2.85;1.17;;;;;;;16.58;58.65;96726.16;5000702;28;20114;-81
2022/05/25 07:24:17;;;;;;;2.95;0.60;;;;;;;16.69;59.54;96735.97;5033730;23;20049;-81
2022/05/25 07:26:46;;;;;;;1.17;0.38;;;;;;;16.75;58.89;96734.31;5020075;28;20041;-81
2022/05/25 07:29:18;;;;;;;2.38;0.70;;;;;;;16.84;59.57;96742.78;5020284;28;20034;-81
2022/05/25 07:31:52;;;;;;;2.25;1.20;;;;;;;16.88;60.44;96742.13;5020264;28;20031;-80
2022/05/25 07:34:27;;;;;;;0.70;0.70;;;;;;;16.94;57.90;96727.25;5020044;28;20054;-79
2022/05/25 07:37:02;;;;;;;1.17;1.05;;;;;;;16.98;55.94;96732.88;5019493;28;20085;-79
2022/05/25 07:39:36;;;;;;;5.32;0.88;;;;;;;17.03;57.26;96735.66;5019913;28;20094;-81
2022/05/25 07:42:06;;;;;;;1.60;0.75;;;;;;;17.10;57.64;96736.41;5020123;28;20042;-80
2022/05/25 07:44:41;;;;;;;0.90;0.73;;;;;;;17.16;56.96;96740.78;5019226;28;20054;-80
2022/05/25 07:47:12;;;;;;;0.70;0.70;;;;;;;17.21;57.29;96743.59;5019786;28;20050;-80
2022/05/25 07:49:49;;;;;;;4.17;1.00;;;;;;;17.28;57.08;96752.22;5020036;28;20069;-79
2022/05/25 07:52:27;;;;;;;1.70;0.93;;;;;;;17.35;55.48;96744.22;5019770;28;20046;-81
2022/05/25 07:55:00;;;;;;;2.33;0.95;;;;;;;17.41;55.96;96743.34;5019034;28;20101;-79
2022/05/25 07:57:30;;;;;;;1.48;0.80;;;;;;;17.49;55.94;96745.69;5019724;28;20064;-80
2022/05/25 08:00:01;;;;;;;14.40;2.25;;;;;;;17.59;57.01;96749.63;5019670;28;20042;-80
2022/05/25 08:05:47;;;;;;;9.65;2.50;;;;;;;17.74;55.47;96743.97;5009891;28;20038;-80
2022/05/25 08:11:13;;;;;;;;;;;;;;;17.88;54.96;96748.84;5117698;23;20059;-80
2022/05/25 08:13:49;;;;;;;3.03;0.90;;;;;;;17.91;54.13;96748.41;5119878;23;19914;-79
2022/05/25 08:16:33;;;;;;;14.23;1.67;;;;;;;17.96;52.21;96750.38;4999774;28;20065;-80
2022/05/25 08:19:07;;;;;;;5.68;1.40;;;;;;;18.00;54.09;96751.53;5058027;23;20034;-80
2022/05/25 08:21:57;;;;;;;8.20;1.30;;;;;;;18.05;53.66;96743.75;5000013;28;20113;-79
2022/05/25 08:24:34;;;;;;;9.25;1.73;;;;;;;18.09;53.11;96747.53;4999997;28;20038;-80
2022/05/25 08:27:11;;;;;;;12.02;3.08;;;;;;;18.16;52.87;96744.81;4999518;28;20110;-80
2022/05/25 08:29:48;;;;;;;1.20;0.60;;;;;;;18.22;50.27;96746.53;4999766;28;20046;-80
2022/05/25 08:32:21;;;;;;;2.33;0.60;;;;;;;18.27;50.46;96748.50;5383892;23;20315;-80
2022/05/25 08:34:55;;;;;;;1.42;0.85;;;;;;;18.30;49.29;96750.69;5017468;28;20089;-79
2022/05/25 08:37:37;;;;;;;3.53;0.82;;;;;;;18.36;49.12;96744.50;5018633;28;20030;-79
2022/05/25 08:40:12;;;;;;;1.15;0.80;;;;;;;18.42;51.11;96748.06;5018582;28;20097;-79
2022/05/25 08:42:53;;;;;;;0.85;0.80;;;;;;;18.47;51.78;96751.63;5017875;28;20061;-79
2022/05/25 08:45:30;;;;;;;1.73;0.80;;;;;;;18.53;53.32;96745.44;5018100;28;20050;-79
2022/05/25 08:48:03;;;;;;;1.40;0.60;;;;;;;18.55;50.15;96747.06;5018311;28;20042;-79
2022/05/25 08:50:43;;;;;;;0.70;0.70;;;;;;;18.57;51.86;96748.44;5018018;28;20048;-78
2022/05/25 08:53:23;;;;;;;4.60;1.20;;;;;;;18.62;51.22;96737.97;5017816;28;20066;-80
2022/05/25 09:01:22;;;;;;;2.08;0.68;;;;;;;18.67;48.23;96732.81;5183414;23;20067;-81
2022/05/25 09:17:37;;;;;;;1.35;0.57;;;;;;;18.82;50.32;96747.44;4224332;23;20058;-82
2022/05/25 09:20:43;;;;;;;2.05;0.50;;;;;;;18.89;49.55;96743.66;4999391;28;20066;-80
2022/05/25 09:23:31;;;;;;;1.42;0.73;;;;;;;18.91;47.82;96738.94;4999390;28;20115;-80
2022/05/25 09:34:30;;;;;;;1.02;0.52;;;;;;;19.05;49.27;96752.72;5232517;23;20034;-80
2022/05/25 09:40:05;;;;;;;1.17;0.60;;;;;;;19.08;48.62;96754.06;5016842;23;20043;-80
2022/05/25 09:42:37;;;;;;;1.88;0.50;;;;;;;19.12;48.97;96745.44;5001742;28;20039;-79
2022/05/25 09:45:18;;;;;;;1.52;0.70;;;;;;;19.14;46.74;96753.94;5002310;28;20038;-79
2022/05/25 09:47:52;;;;;;;0.45;0.40;;;;;;;19.17;47.49;96760.63;5001600;28;20038;-79
2022/05/25 09:50:37;;;;;;;0.95;0.40;;;;;;;19.21;47.21;96750.38;5001761;28;20035;-79
2022/05/25 09:53:12;;;;;;;1.75;0.40;;;;;;;19.26;45.53;96751.31;5001220;28;20107;-79
2022/05/25 09:55:45;;;;;;;0.70;0.40;;;;;;;19.33;45.20;96753.81;5001694;28;20122;-79
2022/05/25 09:58:28;;;;;;;3.17;0.60;;;;;;;19.43;47.25;96748.72;5001428;28;20045;-79
2022/05/25 10:13:02;;;;;;;1.05;0.40;;;;;;;19.78;45.41;96769.00;5456446;23;20062;-79
2022/05/25 10:15:51;;;;;;;0.30;0.30;;;;;;;19.85;43.31;96767.00;5102462;23;20034;-80
2022/05/25 10:18:37;;;;;;;1.55;0.35;;;;;;;19.91;42.99;96766.06;5001637;28;20062;-78
2022/05/25 10:21:15;;;;;;;2.38;0.20;;;;;;;19.99;43.25;96756.16;5001326;28;20057;-79
2022/05/25 10:24:08;;;;;;;1.08;0.30;;;;;;;20.09;44.57;96756.31;5050293;23;20039;-80
2022/05/25 10:26:55;;;;;;;5.25;0.50;;;;;;;20.17;43.59;96769.97;5000946;28;20058;-79
2022/05/25 10:38:39;;;;;;;0.40;0.20;;;;;;;20.19;40.68;96766.28;5224440;23;20073;-81
2022/05/25 10:44:12;;;;;;;1.60;0.25;;;;;;;20.24;41.58;96769.81;5043846;23;20039;-80
2022/05/25 10:46:57;;;;;;;1.10;0.28;;;;;;;20.21;39.66;96765.00;4985567;28;20062;-79
2022/05/25 10:52:27;;;;;;;2.35;0.40;;;;;;;20.22;40.27;96761.31;5032255;23;20042;-79
2022/05/25 11:01:04;;;;;;;0.77;0.33;;;;;;;20.47;40.62;96763.59;5047281;23;20050;-79
2022/05/25 11:04:06;;;;;;;3.55;0.50;;;;;;;20.47;40.76;96774.19;4975983;28;20032;-79
2022/05/25 11:13:30;;;;;;;1.98;0.55;;;;;;;20.38;41.54;96776.44;5663671;23;20094;-80
2022/05/25 11:16:27;;;;;;;1.63;0.47;;;;;;;20.47;41.05;96778.69;5000266;28;20048;-79
2022/05/25 11:23:09;;;;;;;2.20;0.47;;;;;;;20.65;40.42;96775.03;5472933;23;20820;-79
2022/05/25 11:25:58;;;;;;;0.52;0.40;;;;;;;20.68;39.78;96779.81;5000746;28;20078;-81
2022/05/25 11:29:09;;;;;;;1.25;0.70;;;;;;;20.70;39.96;96777.75;5000709;28;20094;-79
2022/05/25 11:32:37;;;;;;;0.77;0.40;;;;;;;20.74;42.00;96781.50;5000621;28;20042;-80
2022/05/25 11:35:26;;;;;;;;;;;;;;;20.81;42.02;96779.50;5000807;28;20037;-78
2022/05/25 11:38:28;;;;;;;2.15;0.73;;;;;;;20.86;40.00;96776.13;5000046;28;19930;-79
2022/05/25 11:41:18;;;;;;;4.20;0.75;;;;;;;20.89;39.92;96770.34;4999939;28;20047;-79
2022/05/25 11:47:18;;;;;;;2.58;0.60;;;;;;;20.93;39.19;96772.25;4998320;28;20039;-79
2022/05/25 11:50:22;;;;;;;3.28;0.55;;;;;;;20.96;41.31;96779.72;4999674;28;20055;-80
2022/05/25 11:53:39;;;;;;;1.65;0.30;;;;;;;21.01;40.68;96775.53;5000535;28;20061;-79
2022/05/25 11:56:36;;;;;;;1.83;0.65;;;;;;;21.04;41.59;96778.50;4999995;28;20055;-80
2022/05/25 11:59:25;;;;;;;2.90;0.30;;;;;;;21.08;40.62;96774.34;5000023;28;20053;-79
2022/05/25 12:05:09;;;;;;;1.30;0.45;;;;;;;21.17;40.15;96764.91;5134620;23;20065;-79
2022/05/25 12:07:58;;;;;;;3.53;0.65;;;;;;;21.25;40.17;96770.81;4998343;28;20039;-79
2022/05/25 12:10:39;;;;;;;1.52;0.30;;;;;;;21.30;38.87;96770.91;4999320;28;20034;-79
2022/05/25 12:13:21;;;;;;;0.75;0.30;;;;;;;21.33;38.12;96763.25;4999654;28;20051;-78
2022/05/25 12:16:05;;;;;;;1.25;0.30;;;;;;;21.34;39.77;96764.03;4999794;28;20031;-82
2022/05/25 12:18:52;;;;;;;0.50;0.40;;;;;;;21.38;39.87;96765.16;4999482;28;20042;-80
2022/05/25 12:21:47;;;;;;;2.13;0.35;;;;;;;21.43;39.20;96769.75;5183751;23;20050;-78
2022/05/25 12:24:47;;;;;;;1.27;0.40;;;;;;;21.44;39.09;96763.41;4999632;28;20074;-79
2022/05/25 12:27:30;;;;;;;3.38;0.30;;;;;;;21.48;38.40;96762.66;4999468;28;20038;-80
2022/05/25 12:30:11;;;;;;;3.22;0.60;;;;;;;21.49;38.16;96763.47;4999208;28;20039;-79
2022/05/25 12:38:16;;;;;;;4.40;0.90;;;;;;;21.50;38.88;96760.56;5294346;23;20039;-81
2022/05/25 12:40:50;;;;;;;2.88;0.70;;;;;;;21.50;38.44;96762.41;4999362;28;20035;-82
2022/05/25 14:14:56;;;;;;;0.60;0.30;;;;;;;21.64;39.36;96728.31;4993096;28;20426;-78
2022/05/25 14:17:26;;;;;;;1.02;0.30;;;;;;;21.62;37.77;96731.22;4995059;28;20050;-78
2022/05/25 14:19:58;;;;;;;0.40;0.40;;;;;;;21.63;38.63;96737.34;4995735;28;20127;-79
2022/05/25 14:22:27;;;;;;;0.95;0.40;;;;;;;21.63;40.19;96738.16;4988782;28;20426;-78
2022/05/25 14:24:57;;;;;;;2.17;0.30;;;;;;;21.62;36.78;96744.50;4976614;28;20046;-78
2022/05/25 14:27:27;;;;;;;0.73;0.20;;;;;;;21.59;36.95;96742.34;4976046;28;20061;-78
2022/05/25 14:30:06;;;;;;;0.60;0.30;;;;;;;21.58;39.71;96741.56;4976346;28;20047;-79
2022/05/25 14:32:35;;;;;;;3.17;0.40;;;;;;;21.56;37.54;96734.91;4976256;28;20057;-78
2022/05/25 14:35:06;;;;;;;1.75;0.40;;;;;;;21.54;38.99;96731.69;4976076;28;20055;-78
2022/05/25 14:37:38;;;;;;;0.68;0.40;;;;;;;21.55;38.22;96730.63;4984170;28;20130;-79
2022/05/25 14:40:07;;;;;;;;;;;;;;;21.56;39.41;96741.00;4992363;28;20050;-79
2022/05/25 14:42:51;;;;;;;0.80;0.20;;;;;;;21.53;38.24;96730.84;4980232;28;19922;-79
2022/05/25 14:45:21;;;;;;;0.70;0.40;;;;;;;21.51;38.81;96735.63;4975905;28;20051;-79
2022/05/25 14:47:51;;;;;;;0.40;0.20;;;;;;;21.53;41.11;96746.00;4975369;28;20050;-78
2022/05/25 14:50:22;;;;;;;0.80;0.30;;;;;;;21.53;38.80;96735.38;4975821;28;20145;-78
2022/05/25 14:52:58;;;;;;;0.52;0.28;;;;;;;21.53;39.78;96730.06;4975929;28;20054;-78
2022/05/25 14:55:30;;;;;;;1.88;0.50;;;;;;;21.53;37.60;96738.03;4975975;28;20434;-78
2022/05/25 14:58:08;;;;;;;1.50;0.60;;;;;;;21.51;38.21;96729.50;4975337;28;20055;-78
2022/05/25 15:00:44;;;;;;;1.77;0.30;;;;;;;21.49;40.70;96731.59;4975444;28;20047;-78
2022/05/25 15:03:26;;;;;;;1.35;0.40;;;;;;;21.47;40.79;96729.22;4975327;28;20055;-79
2022/05/25 15:06:00;;;;;;;1.38;0.50;;;;;;;21.47;40.22;96733.72;4974845;28;20434;-78
2022/05/25 15:08:32;;;;;;;0.82;0.40;;;;;;;21.48;39.74;96730.00;4975332;28;20597;-79
2022/05/25 15:11:36;;;;;;;0.70;0.38;;;;;;;21.50;39.45;96728.72;4976058;28;20141;-79
2022/05/25 15:19:45;;;;;;;;;;;;;;;21.56;39.69;96737.53;4945703;28;20096;-79
2022/05/25 15:22:16;;;;;;;1.85;0.32;;;;;;;21.51;38.95;96734.81;4978305;28;20489;-79
2022/05/25 15:25:01;;;;;;;0.43;0.20;;;;;;;21.48;37.93;96737.97;4978320;28;20058;-78
2022/05/25 15:27:38;;;;;;;0.95;0.30;;;;;;;21.44;38.13;96724.41;4974492;28;20422;-78
2022/05/25 15:30:21;;;;;;;1.52;0.30;;;;;;;21.42;39.84;96731.81;4975026;28;20137;-78
2022/05/25 15:32:50;;;;;;;1.13;0.20;;;;;;;21.41;38.29;96735.50;4975054;28;20510;-78
2022/05/25 15:35:17;;;;;;;1.95;0.43;;;;;;;21.37;38.74;96729.84;4976675;28;20051;-79
2022/05/25 15:37:53;;;;;;;0.75;0.30;;;;;;;21.35;37.50;96734.59;4974419;28;20055;-78
2022/05/25 15:40:29;;;;;;;1.25;0.50;;;;;;;21.37;37.39;96737.81;4975136;28;20050;-78
2022/05/25 15:42:58;;;;;;;1.23;0.40;;;;;;;21.39;39.45;96735.72;4974991;28;20085;-78
2022/05/25 15:45:26;;;;;;;1.00;0.50;;;;;;;21.40;37.30;96736.50;4974455;28;20050;-79
2022/05/25 15:47:55;;;;;;;0.45;0.22;;;;;;;21.41;38.51;96735.50;4974527;28;20414;-79
2022/05/25 15:50:23;;;;;;;2.80;0.30;;;;;;;21.42;37.75;96736.31;4975315;28;20147;-79
2022/05/25 15:52:50;;;;;;;1.05;0.28;;;;;;;21.42;37.53;96737.09;4974850;28;20047;-79
2022/05/25 15:55:18;;;;;;;1.08;0.22;;;;;;;21.42;38.51;96731.81;4974600;28;20057;-78
2022/05/25 15:57:51;;;;;;;3.00;0.40;;;;;;;21.43;38.27;96740.56;4973999;28;20053;-78
2022/05/25 16:00:20;;;;;;;0.73;0.20;;;;;;;21.43;39.55;96738.72;4974527;28;20430;-78
2022/05/25 16:02:50;;;;;;;0.82;0.43;;;;;;;21.45;38.59;96735.81;4974451;28;20047;-79
2022/05/25 16:05:20;;;;;;;3.45;0.30;;;;;;;21.46;38.91;96738.22;4974362;28;20057;-78
2022/05/25 16:10:33;;;;;;;1.90;0.17;;;;;;;21.49;38.82;96743.03;4974868;28;20525;-78
2022/05/25 16:13:01;;;;;;;1.30;0.40;;;;;;;21.50;37.62;96744.63;4974193;28;20054;-78
2022/05/25 16:15:29;;;;;;;1.13;0.25;;;;;;;21.47;38.40;96741.66;4974515;28;20058;-78
2022/05/25 16:17:56;;;;;;;0.65;0.45;;;;;;;21.44;39.44;96742.16;4973442;28;20059;-79
2022/05/25 16:20:25;;;;;;;5.78;0.73;;;;;;;21.44;39.31;96750.13;4973983;28;20058;-78
2022/05/25 16:22:53;;;;;;;0.65;0.30;;;;;;;21.44;40.21;96750.13;4973885;28;20426;-78
2022/05/25 16:25:23;;;;;;;1.38;0.40;;;;;;;21.43;39.69;96743.22;4974135;28;20093;-78
2022/05/25 16:27:50;;;;;;;3.00;0.50;;;;;;;21.43;37.87;96748.50;4973392;28;20069;-78
2022/05/25 16:30:20;;;;;;;0.70;0.40;;;;;;;21.39;37.33;96748.19;4973991;28;20050;-79
2022/05/25 16:32:48;;;;;;;1.10;0.28;;;;;;;21.37;39.80;96748.44;4973444;28;20050;-78
2022/05/25 16:35:17;;;;;;;2.95;0.30;;;;;;;21.33;38.99;96744.66;4973733;28;20054;-78
2022/05/25 16:37:46;;;;;;;1.15;0.77;;;;;;;21.30;38.41;96753.13;4973172;28;20050;-79
2022/05/25 16:40:15;;;;;;;2.53;0.30;;;;;;;21.27;37.59;96745.66;4973780;28;20053;-78
2022/05/25 16:42:43;;;;;;;0.98;0.60;;;;;;;21.27;39.14;96752.81;4975962;28;20042;-78
2022/05/25 16:45:17;;;;;;;1.52;0.25;;;;;;;21.24;38.74;96748.00;4976666;28;20111;-78
2022/05/25 16:47:45;;;;;;;1.75;0.30;;;;;;;21.24;38.54;96753.31;4975688;28;20047;-75
2022/05/25 16:50:12;;;;;;;0.68;0.30;;;;;;;21.22;39.00;96756.19;4973829;28;20051;-74
2022/05/25 16:52:41;;;;;;;1.98;0.65;;;;;;;21.21;39.57;96751.97;4972590;28;20055;-74
2022/05/25 16:55:12;;;;;;;1.25;0.30;;;;;;;21.19;38.82;96751.41;4969562;28;20043;-75
2022/05/25 16:57:40;;;;;;;2.78;0.40;;;;;;;21.18;37.29;96758.53;4969920;28;20418;-75
2022/05/25 17:00:11;;;;;;;2.20;0.50;;;;;;;21.17;36.66;96762.25;4973729;28;20061;-72
2022/05/25 17:02:38;;;;;;;0.68;0.30;;;;;;;21.18;39.43;96769.16;4992511;28;20439;-72
2022/05/25 17:05:07;;;;;;;4.82;0.52;;;;;;;21.15;38.94;96768.84;4981170;28;20113;-74
2022/05/25 17:07:35;;;;;;;1.17;0.40;;;;;;;21.12;38.59;96783.41;4972075;28;20051;-72
2022/05/25 17:10:04;;;;;;;0.30;0.20;;;;;;;21.10;40.54;96780.19;4966580;28;20489;-73
2022/05/25 17:12:33;;;;;;;1.10;0.40;;;;;;;21.07;40.27;96785.19;4971853;28;20050;-72
2022/05/25 17:15:01;;;;;;;0.50;0.50;;;;;;;21.02;39.30;96787.75;4966794;28;20059;-73
2022/05/25 17:17:28;;;;;;;1.45;0.20;;;;;;;20.97;40.05;96793.81;4970042;28;20458;-73
2022/05/25 17:22:41;;;;;;;2.58;0.32;;;;;;;20.89;39.66;96802.97;4973108;28;20082;-79
2022/05/25 17:33:04;;;;;;;0.60;0.30;;;;;;;20.88;41.47;96814.63;4952132;29;20488;-78
2022/05/25 17:41:46;;;;;;;1.88;0.88;;;;;;;20.88;38.50;96816.44;4971793;29;20115;-78
2022/05/25 17:43:51;;;;;;;1.35;0.10;;;;;;;20.85;39.62;96828.34;4955181;28;20043;-77
2022/05/25 17:46:19;;;;;;;1.65;0.20;;;;;;;20.84;37.80;96832.06;4958964;28;20132;-78
2022/05/25 17:49:00;;;;;;;4.20;0.20;;;;;;;20.83;36.90;96835.72;4954216;29;20047;-77
2022/05/25 17:51:32;;;;;;;1.13;0.25;;;;;;;20.80;37.39;96833.56;4939844;29;20048;-79
2022/05/25 17:54:00;;;;;;;1.05;0.57;;;;;;;20.77;38.43;96840.16;4947285;29;20134;-77
2022/05/25 17:56:27;;;;;;;2.17;0.30;;;;;;;20.75;37.33;96839.59;4957702;29;20051;-77
2022/05/25 17:58:55;;;;;;;0.38;0.20;;;;;;;20.73;37.74;96854.16;4952493;29;20057;-78
2022/05/25 18:01:23;;;;;;;2.78;0.30;;;;;;;20.70;37.48;96854.59;4943333;29;20044;-78
2022/05/25 18:03:52;;;;;;;5.97;0.77;;;;;;;20.66;37.42;96846.34;4954269;29;20047;-77
2022/05/25 18:06:20;;;;;;;1.45;0.15;;;;;;;20.65;38.91;96849.22;4957584;29;20054;-77
2022/05/25 18:08:50;;;;;;;1.60;0.40;;;;;;;20.63;40.35;96862.72;4954588;29;20483;-78
2022/05/25 18:11:21;;;;;;;0.65;0.30;;;;;;;20.60;39.79;96862.38;4942939;29;20051;-77
2022/05/25 18:13:55;;;;;;;0.43;0.22;;;;;;;20.58;39.37;96854.69;4940328;29;20079;-77
2022/05/25 18:16:24;;;;;;;0.80;0.30;;;;;;;20.56;38.83;96860.19;4937782;29;20087;-77
2022/05/25 18:18:53;;;;;;;2.33;0.40;;;;;;;20.53;39.04;96862.50;4937826;29;20123;-78
2022/05/25 18:21:21;;;;;;;0.52;0.10;;;;;;;20.51;40.16;96862.75;4938344;29;20054;-78
2022/05/25 18:23:49;;;;;;;1.27;0.45;;;;;;;20.50;40.88;96869.09;4947887;29;20486;-77
2022/05/25 18:26:17;;;;;;;1.65;0.40;;;;;;;20.48;41.20;96865.06;4954552;29;20054;-77